This is the latest recevied weather packets stored in our database for station/object OH6HPS. If no packets are shown the sender has not sent any weather packets the latest 10 day(s).
| Time | Temp. | Humidity | Pressure | Rain* | Wind** | Luminosity | Snow |
|---|---|---|---|---|---|---|---|
| 1777532672 | 8.33° C | 81% | 1021.4 hPa | 0 mm | - | 178 W/m² | - |
| 1777532069 | 8.33° C | 81% | 1021.3 hPa | 0 mm | - | 178 W/m² | - |
| 1777531470 | 8.33° C | 83% | 1021.2 hPa | 0 mm | - | 183 W/m² | - |
| 1777530869 | 7.78° C | 83% | 1021.2 hPa | 0 mm | - | 158 W/m² | - |
| 1777530269 | 7.22° C | 84% | 1021.1 hPa | 0 mm | - | 153 W/m² | - |
| 1777529670 | 7.22° C | 84% | 1021.2 hPa | 0 mm | - | 150 W/m² | - |
| 1777529068 | 6.67° C | 85% | 1021.3 hPa | 0 mm | - | 162 W/m² | - |
| 1777528467 | 6.67° C | 86% | 1021.4 hPa | 0 mm | - | 141 W/m² | - |
| 1777527868 | 6.11° C | 87% | 1021.4 hPa | 0 mm | - | 118 W/m² | - |
| 1777527268 | 6.11° C | 88% | 1021.6 hPa | 0 mm | - | 85 W/m² | - |
| 1777526668 | 5.56° C | 88% | 1021.5 hPa | 0 mm | - | 81 W/m² | - |
| 1777526066 | 5.56° C | 88% | 1021.5 hPa | 0 mm | - | 72 W/m² | - |
| 1777525468 | 5.56° C | 88% | 1021.5 hPa | 0 mm | - | 63 W/m² | - |
| 1777524867 | 5.56° C | 88% | 1021.7 hPa | 0 mm | - | 37 W/m² | - |
| 1777524267 | 5.56° C | 88% | 1021.8 hPa | 0 mm | - | 27 W/m² | - |
| 1777523665 | 5.56° C | 88% | 1021.8 hPa | 0 mm | - | 21 W/m² | - |
| 1777523067 | 5° C | 88% | 1021.9 hPa | 0 mm | - | 18 W/m² | - |
| 1777522465 | 5° C | 87% | 1021.7 hPa | 0 mm | - | 27 W/m² | - |
| 1777521865 | 5° C | 87% | 1021.5 hPa | 0 mm | - | 37 W/m² | - |
| 1777521266 | 5° C | 87% | 1021.8 hPa | 0 mm | - | 12 W/m² | - |
| 1777520664 | 5° C | 87% | 1021.7 hPa | 0 mm | - | 11 W/m² | - |
| 1777520065 | 5° C | 86% | 1021.6 hPa | 0 mm | - | 11 W/m² | - |
| 1777519463 | 5° C | 86% | 1021.5 hPa | 0 mm | - | 11 W/m² | - |
| 1777518863 | 5° C | 85% | 1021.6 hPa | 0 mm | - | 0 W/m² | - |
| 1777518263 | 5° C | 84% | 1021.7 hPa | 0 mm | - | 0 W/m² | - |
* Rain latest hour (hover to see other rain measurements)
** Current wind speed in m/s (hover to see current wind gust speed)